sensor_id;sensor_type;location;lat;lon;timestamp;P1;durP1;ratioP1;P2;durP2;ratioP2
64842;SDS011;51310;52.198;5.422;2023-02-03T00:00:45;20.40;;;4.07;;
64842;SDS011;51310;52.198;5.422;2023-02-03T00:03:12;16.33;;;3.60;;
64842;SDS011;51310;52.198;5.422;2023-02-03T00:05:37;16.92;;;3.38;;
64842;SDS011;51310;52.198;5.422;2023-02-03T00:08:05;18.40;;;4.10;;
64842;SDS011;51310;52.198;5.422;2023-02-03T00:10:33;14.73;;;3.42;;
64842;SDS011;51310;52.198;5.422;2023-02-03T00:13:01;11.15;;;2.78;;
64842;SDS011;51310;52.198;5.422;2023-02-03T00:15:27;13.63;;;4.07;;
64842;SDS011;51310;52.198;5.422;2023-02-03T00:17:53;14.43;;;3.53;;
64842;SDS011;51310;52.198;5.422;2023-02-03T00:20:19;14.00;;;3.70;;
64842;SDS011;51310;52.198;5.422;2023-02-03T00:22:45;9.97;;;3.03;;
64842;SDS011;51310;52.198;5.422;2023-02-03T00:25:10;12.77;;;3.60;;
64842;SDS011;51310;52.198;5.422;2023-02-03T00:27:36;14.20;;;3.37;;
64842;SDS011;51310;52.198;5.422;2023-02-03T00:30:02;10.17;;;2.93;;
64842;SDS011;51310;52.198;5.422;2023-02-03T00:32:28;14.93;;;3.70;;
64842;SDS011;51310;52.198;5.422;2023-02-03T00:34:54;10.95;;;2.58;;
64842;SDS011;51310;52.198;5.422;2023-02-03T00:37:20;8.90;;;2.58;;
64842;SDS011;51310;52.198;5.422;2023-02-03T00:39:47;10.32;;;3.10;;
64842;SDS011;51310;52.198;5.422;2023-02-03T00:42:13;11.80;;;4.78;;
64842;SDS011;51310;52.198;5.422;2023-02-03T00:44:40;12.85;;;3.30;;
64842;SDS011;51310;52.198;5.422;2023-02-03T00:47:06;8.83;;;2.50;;
64842;SDS011;51310;52.198;5.422;2023-02-03T00:49:32;8.23;;;2.70;;
64842;SDS011;51310;52.198;5.422;2023-02-03T00:51:57;13.63;;;2.60;;
64842;SDS011;51310;52.198;5.422;2023-02-03T00:54:23;9.47;;;2.43;;
64842;SDS011;51310;52.198;5.422;2023-02-03T00:56:49;7.87;;;2.10;;
64842;SDS011;51310;52.198;5.422;2023-02-03T00:59:15;15.27;;;2.50;;
64842;SDS011;51310;52.198;5.422;2023-02-03T01:01:40;8.50;;;2.57;;
64842;SDS011;51310;52.198;5.422;2023-02-03T01:04:06;8.53;;;2.53;;
64842;SDS011;51310;52.198;5.422;2023-02-03T01:06:32;14.50;;;2.60;;
64842;SDS011;51310;52.198;5.422;2023-02-03T01:08:58;11.23;;;2.43;;
64842;SDS011;51310;52.198;5.422;2023-02-03T01:11:26;9.90;;;3.03;;
64842;SDS011;51310;52.198;5.422;2023-02-03T01:13:52;9.70;;;2.63;;
64842;SDS011;51310;52.198;5.422;2023-02-03T01:16:21;14.35;;;3.38;;
64842;SDS011;51310;52.198;5.422;2023-02-03T01:18:48;11.65;;;2.33;;
64842;SDS011;51310;52.198;5.422;2023-02-03T01:21:19;11.90;;;2.28;;
64842;SDS011;51310;52.198;5.422;2023-02-03T01:23:48;11.52;;;2.58;;
64842;SDS011;51310;52.198;5.422;2023-02-03T01:26:17;13.67;;;2.60;;
64842;SDS011;51310;52.198;5.422;2023-02-03T01:28:52;11.68;;;2.67;;
64842;SDS011;51310;52.198;5.422;2023-02-03T01:31:26;9.43;;;2.35;;
64842;SDS011;51310;52.198;5.422;2023-02-03T01:34:03;11.13;;;3.60;;
64842;SDS011;51310;52.198;5.422;2023-02-03T01:36:31;8.63;;;2.58;;
64842;SDS011;51310;52.198;5.422;2023-02-03T01:38:59;11.60;;;2.88;;
64842;SDS011;51310;52.198;5.422;2023-02-03T01:41:26;11.45;;;2.88;;
64842;SDS011;51310;52.198;5.422;2023-02-03T01:43:59;13.38;;;2.78;;
64842;SDS011;51310;52.198;5.422;2023-02-03T01:49:26;8.90;;;2.47;;
64842;SDS011;51310;52.198;5.422;2023-02-03T01:51:57;7.55;;;2.35;;
64842;SDS011;51310;52.198;5.422;2023-02-03T01:54:25;12.02;;;2.72;;
64842;SDS011;51310;52.198;5.422;2023-02-03T01:56:57;12.02;;;2.50;;
64842;SDS011;51310;52.198;5.422;2023-02-03T01:59:30;13.40;;;3.00;;
64842;SDS011;51310;52.198;5.422;2023-02-03T02:01:58;13.93;;;2.30;;
64842;SDS011;51310;52.198;5.422;2023-02-03T02:04:28;12.73;;;2.22;;
64842;SDS011;51310;52.198;5.422;2023-02-03T02:07:17;9.73;;;2.15;;
64842;SDS011;51310;52.198;5.422;2023-02-03T02:09:43;9.90;;;2.17;;
64842;SDS011;51310;52.198;5.422;2023-02-03T02:12:10;8.13;;;2.07;;
64842;SDS011;51310;52.198;5.422;2023-02-03T02:14:37;11.07;;;2.92;;
64842;SDS011;51310;52.198;5.422;2023-02-03T02:17:07;10.52;;;2.55;;
64842;SDS011;51310;52.198;5.422;2023-02-03T02:20:10;11.23;;;2.08;;
64842;SDS011;51310;52.198;5.422;2023-02-03T02:32:20;5.93;;;1.60;;
64842;SDS011;51310;52.198;5.422;2023-02-03T02:35:17;7.85;;;2.10;;
64842;SDS011;51310;52.198;5.422;2023-02-03T02:40:42;9.30;;;1.70;;
64842;SDS011;51310;52.198;5.422;2023-02-03T02:43:38;9.40;;;1.88;;
64842;SDS011;51310;52.198;5.422;2023-02-03T02:46:15;8.63;;;2.10;;
64842;SDS011;51310;52.198;5.422;2023-02-03T02:51:47;9.05;;;1.75;;
64842;SDS011;51310;52.198;5.422;2023-02-03T02:54:17;6.23;;;1.60;;
64842;SDS011;51310;52.198;5.422;2023-02-03T02:56:47;6.80;;;1.53;;
64842;SDS011;51310;52.198;5.422;2023-02-03T02:59:19;5.43;;;1.40;;
64842;SDS011;51310;52.198;5.422;2023-02-03T03:01:45;7.80;;;1.40;;
64842;SDS011;51310;52.198;5.422;2023-02-03T03:04:11;10.40;;;2.22;;
64842;SDS011;51310;52.198;5.422;2023-02-03T03:11:50;9.95;;;1.50;;
64842;SDS011;51310;52.198;5.422;2023-02-03T03:14:25;4.18;;;1.10;;
64842;SDS011;51310;52.198;5.422;2023-02-03T03:16:58;10.20;;;1.92;;
64842;SDS011;51310;52.198;5.422;2023-02-03T03:19:49;7.95;;;1.75;;
64842;SDS011;51310;52.198;5.422;2023-02-03T03:22:21;11.27;;;1.80;;
64842;SDS011;51310;52.198;5.422;2023-02-03T03:25:02;9.73;;;1.48;;
64842;SDS011;51310;52.198;5.422;2023-02-03T03:27:43;9.52;;;1.67;;
64842;SDS011;51310;52.198;5.422;2023-02-03T03:30:21;8.77;;;1.77;;
64842;SDS011;51310;52.198;5.422;2023-02-03T03:32:53;9.70;;;1.40;;
64842;SDS011;51310;52.198;5.422;2023-02-03T03:35:20;9.80;;;2.00;;
64842;SDS011;51310;52.198;5.422;2023-02-03T03:37:50;11.23;;;1.95;;
64842;SDS011;51310;52.198;5.422;2023-02-03T03:40:35;14.80;;;2.42;;
64842;SDS011;51310;52.198;5.422;2023-02-03T03:45:57;8.02;;;1.45;;
64842;SDS011;51310;52.198;5.422;2023-02-03T03:48:36;9.20;;;1.48;;
64842;SDS011;51310;52.198;5.422;2023-02-03T03:51:29;7.10;;;1.67;;
64842;SDS011;51310;52.198;5.422;2023-02-03T03:54:06;12.57;;;2.60;;
64842;SDS011;51310;52.198;5.422;2023-02-03T03:56:48;5.18;;;1.23;;
64842;SDS011;51310;52.198;5.422;2023-02-03T03:59:20;11.32;;;1.85;;
64842;SDS011;51310;52.198;5.422;2023-02-03T04:01:51;7.28;;;1.67;;
64842;SDS011;51310;52.198;5.422;2023-02-03T04:04:17;6.70;;;1.65;;
64842;SDS011;51310;52.198;5.422;2023-02-03T04:06:45;10.60;;;1.80;;
64842;SDS011;51310;52.198;5.422;2023-02-03T04:09:10;8.47;;;1.53;;
64842;SDS011;51310;52.198;5.422;2023-02-03T04:11:36;8.60;;;1.90;;
64842;SDS011;51310;52.198;5.422;2023-02-03T04:14:20;8.70;;;1.67;;
64842;SDS011;51310;52.198;5.422;2023-02-03T04:16:46;6.82;;;2.03;;
64842;SDS011;51310;52.198;5.422;2023-02-03T04:19:11;7.55;;;1.63;;
64842;SDS011;51310;52.198;5.422;2023-02-03T04:21:37;7.00;;;1.52;;
64842;SDS011;51310;52.198;5.422;2023-02-03T04:24:03;12.93;;;1.90;;
64842;SDS011;51310;52.198;5.422;2023-02-03T04:26:29;5.85;;;1.83;;
64842;SDS011;51310;52.198;5.422;2023-02-03T04:28:54;8.65;;;2.15;;
64842;SDS011;51310;52.198;5.422;2023-02-03T04:31:20;9.57;;;1.77;;
64842;SDS011;51310;52.198;5.422;2023-02-03T04:33:46;7.88;;;1.67;;
64842;SDS011;51310;52.198;5.422;2023-02-03T04:36:11;7.03;;;1.55;;
64842;SDS011;51310;52.198;5.422;2023-02-03T04:38:37;6.13;;;1.60;;
64842;SDS011;51310;52.198;5.422;2023-02-03T04:41:03;9.10;;;1.30;;
64842;SDS011;51310;52.198;5.422;2023-02-03T04:43:28;11.87;;;1.60;;
64842;SDS011;51310;52.198;5.422;2023-02-03T04:45:54;9.85;;;1.60;;
64842;SDS011;51310;52.198;5.422;2023-02-03T04:48:20;8.87;;;1.87;;
64842;SDS011;51310;52.198;5.422;2023-02-03T04:50:46;12.50;;;1.87;;
64842;SDS011;51310;52.198;5.422;2023-02-03T04:53:11;7.30;;;2.13;;
64842;SDS011;51310;52.198;5.422;2023-02-03T04:55:37;7.50;;;1.50;;
64842;SDS011;51310;52.198;5.422;2023-02-03T04:58:03;6.10;;;1.70;;
64842;SDS011;51310;52.198;5.422;2023-02-03T05:00:28;10.50;;;1.37;;
64842;SDS011;51310;52.198;5.422;2023-02-03T05:02:54;5.33;;;1.13;;
64842;SDS011;51310;52.198;5.422;2023-02-03T05:05:20;9.10;;;1.80;;
64842;SDS011;51310;52.198;5.422;2023-02-03T05:07:46;10.13;;;1.77;;
64842;SDS011;51310;52.198;5.422;2023-02-03T05:10:11;9.43;;;1.67;;
64842;SDS011;51310;52.198;5.422;2023-02-03T05:12:37;8.98;;;1.60;;
64842;SDS011;51310;52.198;5.422;2023-02-03T05:15:03;12.15;;;1.98;;
64842;SDS011;51310;52.198;5.422;2023-02-03T05:17:29;11.05;;;1.60;;
64842;SDS011;51310;52.198;5.422;2023-02-03T05:19:55;12.97;;;1.57;;
64842;SDS011;51310;52.198;5.422;2023-02-03T05:22:21;9.90;;;1.90;;
64842;SDS011;51310;52.198;5.422;2023-02-03T05:24:46;10.27;;;2.30;;
64842;SDS011;51310;52.198;5.422;2023-02-03T05:27:12;7.43;;;2.30;;
64842;SDS011;51310;52.198;5.422;2023-02-03T05:29:37;8.45;;;1.67;;
64842;SDS011;51310;52.198;5.422;2023-02-03T05:32:03;8.60;;;1.75;;
64842;SDS011;51310;52.198;5.422;2023-02-03T05:34:29;8.57;;;2.17;;
64842;SDS011;51310;52.198;5.422;2023-02-03T05:36:55;8.73;;;1.70;;
64842;SDS011;51310;52.198;5.422;2023-02-03T05:39:20;12.98;;;2.08;;
64842;SDS011;51310;52.198;5.422;2023-02-03T05:41:46;12.02;;;1.90;;
64842;SDS011;51310;52.198;5.422;2023-02-03T05:44:19;8.80;;;2.20;;
64842;SDS011;51310;52.198;5.422;2023-02-03T05:46:47;4.97;;;1.67;;
64842;SDS011;51310;52.198;5.422;2023-02-03T05:49:14;8.23;;;1.73;;
64842;SDS011;51310;52.198;5.422;2023-02-03T05:51:40;5.88;;;2.08;;
64842;SDS011;51310;52.198;5.422;2023-02-03T05:54:06;10.02;;;1.92;;
64842;SDS011;51310;52.198;5.422;2023-02-03T05:56:33;10.20;;;1.63;;
64842;SDS011;51310;52.198;5.422;2023-02-03T05:58:59;13.00;;;2.08;;
64842;SDS011;51310;52.198;5.422;2023-02-03T06:01:25;7.60;;;2.00;;
64842;SDS011;51310;52.198;5.422;2023-02-03T06:03:50;11.82;;;2.15;;
64842;SDS011;51310;52.198;5.422;2023-02-03T06:06:16;9.13;;;1.73;;
64842;SDS011;51310;52.198;5.422;2023-02-03T06:08:42;6.03;;;1.67;;
64842;SDS011;51310;52.198;5.422;2023-02-03T06:11:08;10.20;;;2.08;;
64842;SDS011;51310;52.198;5.422;2023-02-03T06:13:35;9.93;;;1.60;;
64842;SDS011;51310;52.198;5.422;2023-02-03T06:16:00;11.43;;;3.43;;
64842;SDS011;51310;52.198;5.422;2023-02-03T06:18:27;6.82;;;1.58;;
64842;SDS011;51310;52.198;5.422;2023-02-03T06:20:53;13.13;;;2.15;;
64842;SDS011;51310;52.198;5.422;2023-02-03T06:23:19;10.20;;;1.53;;
64842;SDS011;51310;52.198;5.422;2023-02-03T06:25:46;10.60;;;1.40;;
64842;SDS011;51310;52.198;5.422;2023-02-03T06:28:13;8.07;;;1.70;;
64842;SDS011;51310;52.198;5.422;2023-02-03T06:30:39;11.00;;;1.70;;
64842;SDS011;51310;52.198;5.422;2023-02-03T06:33:05;6.50;;;1.60;;
64842;SDS011;51310;52.198;5.422;2023-02-03T06:35:30;13.33;;;2.00;;
64842;SDS011;51310;52.198;5.422;2023-02-03T06:37:56;15.03;;;2.50;;
64842;SDS011;51310;52.198;5.422;2023-02-03T06:40:21;11.20;;;1.73;;
64842;SDS011;51310;52.198;5.422;2023-02-03T06:42:47;9.37;;;1.83;;
64842;SDS011;51310;52.198;5.422;2023-02-03T06:45:15;10.23;;;2.70;;
64842;SDS011;51310;52.198;5.422;2023-02-03T06:47:41;10.25;;;1.88;;
64842;SDS011;51310;52.198;5.422;2023-02-03T06:50:11;13.15;;;2.13;;
64842;SDS011;51310;52.198;5.422;2023-02-03T06:52:39;7.72;;;1.65;;
64842;SDS011;51310;52.198;5.422;2023-02-03T06:55:05;8.00;;;1.85;;
64842;SDS011;51310;52.198;5.422;2023-02-03T06:57:32;14.55;;;2.22;;
64842;SDS011;51310;52.198;5.422;2023-02-03T06:59:57;15.77;;;2.67;;
64842;SDS011;51310;52.198;5.422;2023-02-03T07:02:23;8.27;;;2.10;;
64842;SDS011;51310;52.198;5.422;2023-02-03T07:04:49;8.37;;;1.50;;
64842;SDS011;51310;52.198;5.422;2023-02-03T07:07:15;14.80;;;2.47;;
64842;SDS011;51310;52.198;5.422;2023-02-03T07:09:41;10.65;;;1.67;;
64842;SDS011;51310;52.198;5.422;2023-02-03T07:12:07;9.02;;;2.15;;
64842;SDS011;51310;52.198;5.422;2023-02-03T07:14:34;10.05;;;2.33;;
64842;SDS011;51310;52.198;5.422;2023-02-03T07:17:00;8.52;;;1.70;;
64842;SDS011;51310;52.198;5.422;2023-02-03T07:19:27;10.30;;;2.15;;
64842;SDS011;51310;52.198;5.422;2023-02-03T07:21:53;11.83;;;2.27;;
64842;SDS011;51310;52.198;5.422;2023-02-03T07:24:19;9.25;;;2.15;;
64842;SDS011;51310;52.198;5.422;2023-02-03T07:26:45;11.75;;;2.28;;
64842;SDS011;51310;52.198;5.422;2023-02-03T07:29:11;10.68;;;2.22;;
64842;SDS011;51310;52.198;5.422;2023-02-03T07:31:36;11.02;;;1.98;;
64842;SDS011;51310;52.198;5.422;2023-02-03T07:34:02;11.43;;;2.20;;
64842;SDS011;51310;52.198;5.422;2023-02-03T07:36:28;12.80;;;2.15;;
64842;SDS011;51310;52.198;5.422;2023-02-03T07:38:55;8.95;;;2.33;;
64842;SDS011;51310;52.198;5.422;2023-02-03T07:41:21;14.52;;;2.20;;
64842;SDS011;51310;52.198;5.422;2023-02-03T07:43:46;12.82;;;3.08;;
64842;SDS011;51310;52.198;5.422;2023-02-03T07:46:12;8.73;;;1.87;;
64842;SDS011;51310;52.198;5.422;2023-02-03T07:48:38;11.85;;;2.80;;
64842;SDS011;51310;52.198;5.422;2023-02-03T07:51:04;9.33;;;1.77;;
64842;SDS011;51310;52.198;5.422;2023-02-03T07:53:30;10.10;;;1.83;;
64842;SDS011;51310;52.198;5.422;2023-02-03T07:55:59;10.20;;;2.40;;
64842;SDS011;51310;52.198;5.422;2023-02-03T07:58:27;10.55;;;2.47;;
64842;SDS011;51310;52.198;5.422;2023-02-03T08:00:54;11.73;;;1.85;;
64842;SDS011;51310;52.198;5.422;2023-02-03T08:03:19;11.00;;;2.25;;
64842;SDS011;51310;52.198;5.422;2023-02-03T08:05:45;14.60;;;2.80;;
64842;SDS011;51310;52.198;5.422;2023-02-03T08:08:12;12.18;;;2.05;;
64842;SDS011;51310;52.198;5.422;2023-02-03T08:10:37;9.33;;;2.33;;
64842;SDS011;51310;52.198;5.422;2023-02-03T08:13:03;11.90;;;1.97;;
64842;SDS011;51310;52.198;5.422;2023-02-03T08:15:29;10.23;;;1.97;;
64842;SDS011;51310;52.198;5.422;2023-02-03T08:17:55;9.10;;;2.50;;
64842;SDS011;51310;52.198;5.422;2023-02-03T08:20:21;10.73;;;2.53;;
64842;SDS011;51310;52.198;5.422;2023-02-03T08:22:47;10.80;;;2.25;;
64842;SDS011;51310;52.198;5.422;2023-02-03T08:25:12;16.35;;;2.17;;
64842;SDS011;51310;52.198;5.422;2023-02-03T08:27:38;14.65;;;3.15;;
64842;SDS011;51310;52.198;5.422;2023-02-03T08:30:05;9.63;;;2.27;;
64842;SDS011;51310;52.198;5.422;2023-02-03T08:32:35;17.10;;;2.95;;
64842;SDS011;51310;52.198;5.422;2023-02-03T08:35:01;7.27;;;1.90;;
64842;SDS011;51310;52.198;5.422;2023-02-03T08:37:27;12.65;;;2.42;;
64842;SDS011;51310;52.198;5.422;2023-02-03T08:39:55;10.38;;;2.28;;
64842;SDS011;51310;52.198;5.422;2023-02-03T08:42:21;10.70;;;2.40;;
64842;SDS011;51310;52.198;5.422;2023-02-03T08:44:47;12.27;;;2.47;;
64842;SDS011;51310;52.198;5.422;2023-02-03T08:47:13;12.65;;;2.90;;
64842;SDS011;51310;52.198;5.422;2023-02-03T08:49:39;10.98;;;1.88;;
64842;SDS011;51310;52.198;5.422;2023-02-03T08:52:05;9.85;;;2.45;;
64842;SDS011;51310;52.198;5.422;2023-02-03T08:54:35;11.05;;;2.67;;
64842;SDS011;51310;52.198;5.422;2023-02-03T08:57:00;12.70;;;2.80;;
64842;SDS011;51310;52.198;5.422;2023-02-03T08:59:26;10.10;;;2.87;;
64842;SDS011;51310;52.198;5.422;2023-02-03T09:01:54;11.45;;;2.33;;
64842;SDS011;51310;52.198;5.422;2023-02-03T09:04:19;12.47;;;2.63;;
64842;SDS011;51310;52.198;5.422;2023-02-03T09:06:49;11.40;;;2.60;;
64842;SDS011;51310;52.198;5.422;2023-02-03T09:09:16;11.02;;;2.05;;
64842;SDS011;51310;52.198;5.422;2023-02-03T09:11:42;12.80;;;2.25;;
64842;SDS011;51310;52.198;5.422;2023-02-03T09:14:08;10.57;;;2.50;;
64842;SDS011;51310;52.198;5.422;2023-02-03T09:16:34;11.57;;;3.08;;
64842;SDS011;51310;52.198;5.422;2023-02-03T09:19:00;13.63;;;2.37;;
64842;SDS011;51310;52.198;5.422;2023-02-03T09:21:26;12.23;;;2.97;;
64842;SDS011;51310;52.198;5.422;2023-02-03T09:23:51;12.00;;;2.60;;
64842;SDS011;51310;52.198;5.422;2023-02-03T09:26:17;9.20;;;2.30;;
64842;SDS011;51310;52.198;5.422;2023-02-03T09:28:43;12.38;;;2.25;;
64842;SDS011;51310;52.198;5.422;2023-02-03T09:31:10;12.83;;;2.47;;
64842;SDS011;51310;52.198;5.422;2023-02-03T09:33:39;10.55;;;1.70;;
64842;SDS011;51310;52.198;5.422;2023-02-03T09:36:05;10.88;;;2.10;;
64842;SDS011;51310;52.198;5.422;2023-02-03T09:38:32;9.52;;;2.33;;
64842;SDS011;51310;52.198;5.422;2023-02-03T09:41:01;9.98;;;2.85;;
64842;SDS011;51310;52.198;5.422;2023-02-03T09:43:51;13.95;;;3.15;;
64842;SDS011;51310;52.198;5.422;2023-02-03T09:46:53;10.15;;;2.50;;
64842;SDS011;51310;52.198;5.422;2023-02-03T09:49:37;14.00;;;2.97;;
64842;SDS011;51310;52.198;5.422;2023-02-03T09:52:22;10.43;;;2.10;;
64842;SDS011;51310;52.198;5.422;2023-02-03T09:57:57;10.80;;;2.40;;
64842;SDS011;51310;52.198;5.422;2023-02-03T10:00:46;13.77;;;2.42;;
64842;SDS011;51310;52.198;5.422;2023-02-03T10:03:37;7.93;;;2.43;;
64842;SDS011;51310;52.198;5.422;2023-02-03T10:09:07;8.95;;;1.52;;
64842;SDS011;51310;52.198;5.422;2023-02-03T10:12:15;12.27;;;2.42;;
64842;SDS011;51310;52.198;5.422;2023-02-03T10:18:20;8.50;;;2.00;;
64842;SDS011;51310;52.198;5.422;2023-02-03T10:20:58;13.25;;;2.30;;
64842;SDS011;51310;52.198;5.422;2023-02-03T10:23:36;10.38;;;2.60;;
64842;SDS011;51310;52.198;5.422;2023-02-03T10:26:17;9.48;;;2.35;;
64842;SDS011;51310;52.198;5.422;2023-02-03T10:28:56;6.22;;;1.88;;
64842;SDS011;51310;52.198;5.422;2023-02-03T10:31:37;8.68;;;1.88;;
64842;SDS011;51310;52.198;5.422;2023-02-03T10:34:10;8.90;;;1.92;;
64842;SDS011;51310;52.198;5.422;2023-02-03T10:39:31;5.43;;;1.70;;
64842;SDS011;51310;52.198;5.422;2023-02-03T10:42:11;10.85;;;2.08;;
64842;SDS011;51310;52.198;5.422;2023-02-03T10:44:39;6.88;;;1.50;;
64842;SDS011;51310;52.198;5.422;2023-02-03T10:47:18;8.75;;;1.77;;
64842;SDS011;51310;52.198;5.422;2023-02-03T10:50:04;7.72;;;2.20;;
64842;SDS011;51310;52.198;5.422;2023-02-03T10:52:42;7.57;;;2.00;;
64842;SDS011;51310;52.198;5.422;2023-02-03T10:57:49;15.15;;;2.45;;
64842;SDS011;51310;52.198;5.422;2023-02-03T11:02:41;8.33;;;1.57;;
64842;SDS011;51310;52.198;5.422;2023-02-03T11:07:42;11.23;;;2.10;;
64842;SDS011;51310;52.198;5.422;2023-02-03T11:10:54;10.90;;;2.50;;
64842;SDS011;51310;52.198;5.422;2023-02-03T11:13:10;7.20;;;2.13;;
64842;SDS011;51310;52.198;5.422;2023-02-03T11:15:44;6.80;;;2.20;;
64842;SDS011;51310;52.198;5.422;2023-02-03T11:18:36;13.63;;;1.90;;
64842;SDS011;51310;52.198;5.422;2023-02-03T11:21:05;9.93;;;1.92;;
64842;SDS011;51310;52.198;5.422;2023-02-03T11:23:59;11.43;;;2.20;;
64842;SDS011;51310;52.198;5.422;2023-02-03T11:29:15;12.55;;;2.40;;
64842;SDS011;51310;52.198;5.422;2023-02-03T11:31:53;9.20;;;2.35;;
64842;SDS011;51310;52.198;5.422;2023-02-03T11:34:23;10.50;;;2.30;;
64842;SDS011;51310;52.198;5.422;2023-02-03T11:37:03;10.07;;;2.08;;
64842;SDS011;51310;52.198;5.422;2023-02-03T11:42:32;8.13;;;1.60;;
64842;SDS011;51310;52.198;5.422;2023-02-03T11:48:01;8.75;;;2.25;;
64842;SDS011;51310;52.198;5.422;2023-02-03T12:08:01;10.93;;;2.90;;
64842;SDS011;51310;52.198;5.422;2023-02-03T12:13:30;9.52;;;2.67;;
64842;SDS011;51310;52.198;5.422;2023-02-03T12:17:03;9.88;;;2.53;;
64842;SDS011;51310;52.198;5.422;2023-02-03T12:22:41;10.98;;;3.10;;
64842;SDS011;51310;52.198;5.422;2023-02-03T12:28:49;11.95;;;2.58;;
64842;SDS011;51310;52.198;5.422;2023-02-03T12:40:58;21.92;;;4.57;;
64842;SDS011;51310;52.198;5.422;2023-02-03T12:43:33;14.73;;;3.30;;
64842;SDS011;51310;52.198;5.422;2023-02-03T12:51:46;16.23;;;4.13;;
64842;SDS011;51310;52.198;5.422;2023-02-03T13:03:10;15.18;;;3.20;;
64842;SDS011;51310;52.198;5.422;2023-02-03T13:05:58;16.73;;;3.13;;
64842;SDS011;51310;52.198;5.422;2023-02-03T13:08:35;15.80;;;2.70;;
64842;SDS011;51310;52.198;5.422;2023-02-03T13:11:21;17.58;;;3.35;;
64842;SDS011;51310;52.198;5.422;2023-02-03T13:13:55;14.43;;;2.65;;
64842;SDS011;51310;52.198;5.422;2023-02-03T13:16:31;13.27;;;3.42;;
64842;SDS011;51310;52.198;5.422;2023-02-03T13:19:08;15.68;;;2.95;;
64842;SDS011;51310;52.198;5.422;2023-02-03T13:21:50;12.60;;;2.60;;
64842;SDS011;51310;52.198;5.422;2023-02-03T13:24:16;11.95;;;3.30;;
64842;SDS011;51310;52.198;5.422;2023-02-03T13:26:53;13.75;;;2.95;;
64842;SDS011;51310;52.198;5.422;2023-02-03T13:33:10;16.23;;;2.47;;
64842;SDS011;51310;52.198;5.422;2023-02-03T13:39:12;18.15;;;3.60;;
64842;SDS011;51310;52.198;5.422;2023-02-03T13:42:06;18.92;;;3.58;;
64842;SDS011;51310;52.198;5.422;2023-02-03T13:44:43;21.02;;;3.53;;
64842;SDS011;51310;52.198;5.422;2023-02-03T13:47:16;21.67;;;4.57;;
64842;SDS011;51310;52.198;5.422;2023-02-03T13:49:53;23.40;;;3.35;;
64842;SDS011;51310;52.198;5.422;2023-02-03T13:52:35;20.98;;;3.20;;
64842;SDS011;51310;52.198;5.422;2023-02-03T13:55:30;18.55;;;3.45;;
64842;SDS011;51310;52.198;5.422;2023-02-03T13:58:03;23.17;;;3.70;;
64842;SDS011;51310;52.198;5.422;2023-02-03T14:05:51;24.60;;;4.32;;
64842;SDS011;51310;52.198;5.422;2023-02-03T14:19:04;21.93;;;4.30;;
64842;SDS011;51310;52.198;5.422;2023-02-03T14:21:45;29.00;;;4.35;;
64842;SDS011;51310;52.198;5.422;2023-02-03T14:24:17;18.63;;;3.50;;
64842;SDS011;51310;52.198;5.422;2023-02-03T14:26:49;21.73;;;4.65;;
64842;SDS011;51310;52.198;5.422;2023-02-03T14:32:06;27.98;;;4.47;;
64842;SDS011;51310;52.198;5.422;2023-02-03T14:37:12;20.50;;;3.83;;
64842;SDS011;51310;52.198;5.422;2023-02-03T14:48:41;31.50;;;4.13;;
64842;SDS011;51310;52.198;5.422;2023-02-03T14:54:28;22.07;;;4.17;;
64842;SDS011;51310;52.198;5.422;2023-02-03T14:57:40;24.95;;;4.95;;
64842;SDS011;51310;52.198;5.422;2023-02-03T15:11:26;23.45;;;4.53;;
64842;SDS011;51310;52.198;5.422;2023-02-03T15:14:14;30.08;;;6.20;;
64842;SDS011;51310;52.198;5.422;2023-02-03T15:16:59;21.50;;;4.68;;
64842;SDS011;51310;52.198;5.422;2023-02-03T15:19:28;19.83;;;3.92;;
64842;SDS011;51310;52.198;5.422;2023-02-03T15:21:59;23.85;;;3.65;;
64842;SDS011;51310;52.198;5.422;2023-02-03T15:24:32;23.80;;;4.43;;
64842;SDS011;51310;52.198;5.422;2023-02-03T15:27:01;26.30;;;4.78;;
64842;SDS011;51310;52.198;5.422;2023-02-03T15:29:28;25.90;;;5.05;;
64842;SDS011;51310;52.198;5.422;2023-02-03T15:32:01;21.27;;;4.47;;
64842;SDS011;51310;52.198;5.422;2023-02-03T15:34:48;27.92;;;4.78;;
64842;SDS011;51310;52.198;5.422;2023-02-03T15:37:27;26.15;;;4.60;;
64842;SDS011;51310;52.198;5.422;2023-02-03T15:40:28;24.02;;;4.10;;
64842;SDS011;51310;52.198;5.422;2023-02-03T15:48:36;21.20;;;4.28;;
64842;SDS011;51310;52.198;5.422;2023-02-03T15:53:46;21.17;;;3.88;;
64842;SDS011;51310;52.198;5.422;2023-02-03T15:56:22;24.17;;;5.13;;
64842;SDS011;51310;52.198;5.422;2023-02-03T15:59:17;20.33;;;4.35;;
64842;SDS011;51310;52.198;5.422;2023-02-03T16:01:48;24.00;;;4.90;;
64842;SDS011;51310;52.198;5.422;2023-02-03T16:04:15;27.08;;;5.05;;
64842;SDS011;51310;52.198;5.422;2023-02-03T16:06:44;26.95;;;5.38;;
64842;SDS011;51310;52.198;5.422;2023-02-03T16:14:52;20.90;;;4.53;;
64842;SDS011;51310;52.198;5.422;2023-02-03T16:17:24;19.83;;;4.60;;
64842;SDS011;51310;52.198;5.422;2023-02-03T16:22:58;21.30;;;4.38;;
64842;SDS011;51310;52.198;5.422;2023-02-03T16:28:40;27.98;;;6.65;;
64842;SDS011;51310;52.198;5.422;2023-02-03T16:31:24;26.87;;;6.43;;
64842;SDS011;51310;52.198;5.422;2023-02-03T16:34:13;23.73;;;4.82;;
64842;SDS011;51310;52.198;5.422;2023-02-03T16:37:11;20.65;;;4.57;;
64842;SDS011;51310;52.198;5.422;2023-02-03T16:40:05;24.58;;;4.45;;
64842;SDS011;51310;52.198;5.422;2023-02-03T16:42:51;25.98;;;3.97;;
64842;SDS011;51310;52.198;5.422;2023-02-03T16:45:35;28.65;;;4.95;;
64842;SDS011;51310;52.198;5.422;2023-02-03T16:48:19;24.70;;;4.90;;
64842;SDS011;51310;52.198;5.422;2023-02-03T16:51:04;24.65;;;3.95;;
64842;SDS011;51310;52.198;5.422;2023-02-03T16:53:37;25.40;;;4.43;;
64842;SDS011;51310;52.198;5.422;2023-02-03T16:56:04;19.95;;;4.20;;
64842;SDS011;51310;52.198;5.422;2023-02-03T16:58:30;23.60;;;4.57;;
64842;SDS011;51310;52.198;5.422;2023-02-03T17:00:57;24.98;;;5.05;;
64842;SDS011;51310;52.198;5.422;2023-02-03T17:03:26;24.55;;;5.00;;
64842;SDS011;51310;52.198;5.422;2023-02-03T17:05:54;22.80;;;4.30;;
64842;SDS011;51310;52.198;5.422;2023-02-03T17:08:22;28.90;;;4.17;;
64842;SDS011;51310;52.198;5.422;2023-02-03T17:10:49;20.15;;;3.55;;
64842;SDS011;51310;52.198;5.422;2023-02-03T17:13:16;20.15;;;4.00;;
64842;SDS011;51310;52.198;5.422;2023-02-03T17:15:47;23.35;;;4.75;;
64842;SDS011;51310;52.198;5.422;2023-02-03T17:18:18;28.85;;;4.18;;
64842;SDS011;51310;52.198;5.422;2023-02-03T17:20:44;25.73;;;4.15;;
64842;SDS011;51310;52.198;5.422;2023-02-03T17:23:11;22.45;;;4.43;;
64842;SDS011;51310;52.198;5.422;2023-02-03T17:25:40;19.40;;;4.38;;
64842;SDS011;51310;52.198;5.422;2023-02-03T17:28:09;20.20;;;3.80;;
64842;SDS011;51310;52.198;5.422;2023-02-03T17:30:37;22.65;;;4.03;;
64842;SDS011;51310;52.198;5.422;2023-02-03T17:33:05;26.73;;;4.95;;
64842;SDS011;51310;52.198;5.422;2023-02-03T17:35:43;25.88;;;4.00;;
64842;SDS011;51310;52.198;5.422;2023-02-03T17:38:10;19.10;;;4.13;;
64842;SDS011;51310;52.198;5.422;2023-02-03T17:40:41;29.83;;;4.32;;
64842;SDS011;51310;52.198;5.422;2023-02-03T17:43:08;23.65;;;5.18;;
64842;SDS011;51310;52.198;5.422;2023-02-03T17:45:38;28.50;;;4.27;;
64842;SDS011;51310;52.198;5.422;2023-02-03T17:48:05;20.90;;;3.92;;
64842;SDS011;51310;52.198;5.422;2023-02-03T17:50:31;20.23;;;4.38;;
64842;SDS011;51310;52.198;5.422;2023-02-03T17:52:56;23.98;;;4.65;;
64842;SDS011;51310;52.198;5.422;2023-02-03T17:55:22;31.65;;;5.90;;
64842;SDS011;51310;52.198;5.422;2023-02-03T17:57:48;21.20;;;3.77;;
64842;SDS011;51310;52.198;5.422;2023-02-03T18:00:14;24.37;;;5.00;;